sensor_id;sensor_type;location;lat;lon;timestamp;temperature;humidity
18611;DHT22;9435;52.122;5.502;2023-05-07T00:01:39;14.60;99.90
18611;DHT22;9435;52.122;5.502;2023-05-07T00:04:07;14.50;99.90
18611;DHT22;9435;52.122;5.502;2023-05-07T00:06:34;14.40;99.90
18611;DHT22;9435;52.122;5.502;2023-05-07T00:09:02;14.40;99.90
18611;DHT22;9435;52.122;5.502;2023-05-07T00:11:30;14.40;99.90
18611;DHT22;9435;52.122;5.502;2023-05-07T00:13:57;14.40;99.90
18611;DHT22;9435;52.122;5.502;2023-05-07T00:16:24;14.40;99.90
18611;DHT22;9435;52.122;5.502;2023-05-07T00:18:51;14.40;99.90
18611;DHT22;9435;52.122;5.502;2023-05-07T00:21:20;14.40;99.90
18611;DHT22;9435;52.122;5.502;2023-05-07T00:23:47;14.40;99.90
18611;DHT22;9435;52.122;5.502;2023-05-07T00:26:15;14.40;99.90
18611;DHT22;9435;52.122;5.502;2023-05-07T00:28:42;14.30;99.90
18611;DHT22;9435;52.122;5.502;2023-05-07T00:31:09;14.30;99.90
18611;DHT22;9435;52.122;5.502;2023-05-07T00:33:38;14.30;99.90
18611;DHT22;9435;52.122;5.502;2023-05-07T00:36:05;14.20;99.90
18611;DHT22;9435;52.122;5.502;2023-05-07T00:38:34;14.20;99.90
18611;DHT22;9435;52.122;5.502;2023-05-07T00:41:01;14.20;99.90
18611;DHT22;9435;52.122;5.502;2023-05-07T00:43:28;14.30;99.90
18611;DHT22;9435;52.122;5.502;2023-05-07T00:45:56;14.20;99.90
18611;DHT22;9435;52.122;5.502;2023-05-07T00:48:23;14.30;99.90
18611;DHT22;9435;52.122;5.502;2023-05-07T00:50:51;14.30;99.90
18611;DHT22;9435;52.122;5.502;2023-05-07T00:53:19;14.20;99.90
18611;DHT22;9435;52.122;5.502;2023-05-07T00:55:48;14.20;99.90
18611;DHT22;9435;52.122;5.502;2023-05-07T00:58:15;14.20;99.90
18611;DHT22;9435;52.122;5.502;2023-05-07T01:00:42;14.20;99.90
18611;DHT22;9435;52.122;5.502;2023-05-07T01:03:09;14.10;99.90
18611;DHT22;9435;52.122;5.502;2023-05-07T01:05:36;14.10;99.90
18611;DHT22;9435;52.122;5.502;2023-05-07T01:08:04;14.00;99.90
18611;DHT22;9435;52.122;5.502;2023-05-07T01:10:31;13.90;99.90
18611;DHT22;9435;52.122;5.502;2023-05-07T01:13:00;13.80;99.90
18611;DHT22;9435;52.122;5.502;2023-05-07T01:15:27;13.80;99.90
18611;DHT22;9435;52.122;5.502;2023-05-07T01:17:56;13.70;99.90
18611;DHT22;9435;52.122;5.502;2023-05-07T01:20:23;13.70;99.90
18611;DHT22;9435;52.122;5.502;2023-05-07T01:22:52;13.80;99.90
18611;DHT22;9435;52.122;5.502;2023-05-07T01:25:20;13.80;99.90
18611;DHT22;9435;52.122;5.502;2023-05-07T01:27:47;13.80;99.90
18611;DHT22;9435;52.122;5.502;2023-05-07T01:30:14;13.80;99.90
18611;DHT22;9435;52.122;5.502;2023-05-07T01:32:43;13.90;99.90
18611;DHT22;9435;52.122;5.502;2023-05-07T01:35:17;13.90;99.90
18611;DHT22;9435;52.122;5.502;2023-05-07T01:37:45;13.90;99.90
18611;DHT22;9435;52.122;5.502;2023-05-07T01:40:14;13.90;99.90
18611;DHT22;9435;52.122;5.502;2023-05-07T01:42:43;13.90;99.90
18611;DHT22;9435;52.122;5.502;2023-05-07T01:45:10;14.00;99.90
18611;DHT22;9435;52.122;5.502;2023-05-07T01:47:38;14.00;99.90
18611;DHT22;9435;52.122;5.502;2023-05-07T01:50:06;14.00;99.90
18611;DHT22;9435;52.122;5.502;2023-05-07T01:52:36;14.00;99.90
18611;DHT22;9435;52.122;5.502;2023-05-07T01:55:05;14.00;99.90
18611;DHT22;9435;52.122;5.502;2023-05-07T01:57:34;14.00;99.90
18611;DHT22;9435;52.122;5.502;2023-05-07T02:00:01;14.00;99.90
18611;DHT22;9435;52.122;5.502;2023-05-07T02:02:31;14.00;99.90
18611;DHT22;9435;52.122;5.502;2023-05-07T02:04:59;14.00;99.90
18611;DHT22;9435;52.122;5.502;2023-05-07T02:07:26;14.00;99.90
18611;DHT22;9435;52.122;5.502;2023-05-07T02:09:53;14.00;99.90
18611;DHT22;9435;52.122;5.502;2023-05-07T02:12:21;13.90;99.90
18611;DHT22;9435;52.122;5.502;2023-05-07T02:14:49;13.90;99.90
18611;DHT22;9435;52.122;5.502;2023-05-07T02:17:16;13.90;99.90
18611;DHT22;9435;52.122;5.502;2023-05-07T02:19:43;13.90;99.90
18611;DHT22;9435;52.122;5.502;2023-05-07T02:22:10;13.90;99.90
18611;DHT22;9435;52.122;5.502;2023-05-07T02:24:37;13.90;99.90
18611;DHT22;9435;52.122;5.502;2023-05-07T02:27:04;13.90;99.90
18611;DHT22;9435;52.122;5.502;2023-05-07T02:29:32;13.90;99.90
18611;DHT22;9435;52.122;5.502;2023-05-07T02:32:00;13.90;99.90
18611;DHT22;9435;52.122;5.502;2023-05-07T02:34:27;13.90;99.90
18611;DHT22;9435;52.122;5.502;2023-05-07T02:36:54;13.90;99.90
18611;DHT22;9435;52.122;5.502;2023-05-07T02:39:21;13.90;99.90
18611;DHT22;9435;52.122;5.502;2023-05-07T02:41:48;13.90;99.90
18611;DHT22;9435;52.122;5.502;2023-05-07T02:44:15;13.90;99.90
18611;DHT22;9435;52.122;5.502;2023-05-07T02:46:42;13.90;99.90
18611;DHT22;9435;52.122;5.502;2023-05-07T02:49:11;14.00;99.90
18611;DHT22;9435;52.122;5.502;2023-05-07T02:51:38;14.00;99.90
18611;DHT22;9435;52.122;5.502;2023-05-07T02:54:05;14.00;99.90
18611;DHT22;9435;52.122;5.502;2023-05-07T02:56:32;14.00;99.90
18611;DHT22;9435;52.122;5.502;2023-05-07T02:58:59;13.90;99.90
18611;DHT22;9435;52.122;5.502;2023-05-07T03:01:26;14.00;99.90
18611;DHT22;9435;52.122;5.502;2023-05-07T03:03:53;14.00;99.90
18611;DHT22;9435;52.122;5.502;2023-05-07T03:06:22;14.00;99.90
18611;DHT22;9435;52.122;5.502;2023-05-07T03:08:49;13.90;99.90
18611;DHT22;9435;52.122;5.502;2023-05-07T03:11:16;13.80;99.90
18611;DHT22;9435;52.122;5.502;2023-05-07T03:13:43;13.90;99.90
18611;DHT22;9435;52.122;5.502;2023-05-07T03:16:10;13.80;99.90
18611;DHT22;9435;52.122;5.502;2023-05-07T03:18:37;13.80;99.90
18611;DHT22;9435;52.122;5.502;2023-05-07T03:21:04;13.80;99.90
18611;DHT22;9435;52.122;5.502;2023-05-07T03:23:32;13.80;99.90
18611;DHT22;9435;52.122;5.502;2023-05-07T03:25:59;13.80;99.90
18611;DHT22;9435;52.122;5.502;2023-05-07T03:28:26;13.80;99.90
18611;DHT22;9435;52.122;5.502;2023-05-07T03:30:53;13.80;99.90
18611;DHT22;9435;52.122;5.502;2023-05-07T03:33:20;13.80;99.90
18611;DHT22;9435;52.122;5.502;2023-05-07T03:35:47;13.80;99.90
18611;DHT22;9435;52.122;5.502;2023-05-07T03:38:14;13.80;99.90
18611;DHT22;9435;52.122;5.502;2023-05-07T03:40:43;13.80;99.90
18611;DHT22;9435;52.122;5.502;2023-05-07T03:43:10;13.80;99.90
18611;DHT22;9435;52.122;5.502;2023-05-07T03:45:37;13.70;99.90
18611;DHT22;9435;52.122;5.502;2023-05-07T03:48:04;13.80;99.90
18611;DHT22;9435;52.122;5.502;2023-05-07T03:50:31;13.80;99.90
18611;DHT22;9435;52.122;5.502;2023-05-07T03:52:58;13.90;99.90
18611;DHT22;9435;52.122;5.502;2023-05-07T03:55:25;13.90;99.90
18611;DHT22;9435;52.122;5.502;2023-05-07T03:57:54;13.80;99.90
18611;DHT22;9435;52.122;5.502;2023-05-07T04:00:22;13.80;99.90
18611;DHT22;9435;52.122;5.502;2023-05-07T04:02:49;13.80;99.90
18611;DHT22;9435;52.122;5.502;2023-05-07T04:05:16;13.80;99.90
18611;DHT22;9435;52.122;5.502;2023-05-07T04:07:43;13.80;99.90
18611;DHT22;9435;52.122;5.502;2023-05-07T04:10:10;13.70;99.90
18611;DHT22;9435;52.122;5.502;2023-05-07T04:12:39;13.70;99.90
18611;DHT22;9435;52.122;5.502;2023-05-07T04:15:08;13.70;99.90
18611;DHT22;9435;52.122;5.502;2023-05-07T04:17:35;13.80;99.90
18611;DHT22;9435;52.122;5.502;2023-05-07T04:20:03;13.80;99.90
18611;DHT22;9435;52.122;5.502;2023-05-07T04:22:30;13.80;99.90
18611;DHT22;9435;52.122;5.502;2023-05-07T04:24:57;13.80;99.90
18611;DHT22;9435;52.122;5.502;2023-05-07T04:27:24;13.80;99.90
18611;DHT22;9435;52.122;5.502;2023-05-07T04:29:52;13.80;99.90
18611;DHT22;9435;52.122;5.502;2023-05-07T04:32:22;13.90;99.90
18611;DHT22;9435;52.122;5.502;2023-05-07T04:34:50;13.90;99.90
18611;DHT22;9435;52.122;5.502;2023-05-07T04:37:17;13.80;99.90
18611;DHT22;9435;52.122;5.502;2023-05-07T04:39:44;13.80;99.90
18611;DHT22;9435;52.122;5.502;2023-05-07T04:42:14;13.70;99.90
18611;DHT22;9435;52.122;5.502;2023-05-07T04:44:41;13.80;99.90
18611;DHT22;9435;52.122;5.502;2023-05-07T04:47:08;13.70;99.90
18611;DHT22;9435;52.122;5.502;2023-05-07T04:49:37;13.80;99.90
18611;DHT22;9435;52.122;5.502;2023-05-07T04:52:04;13.80;99.90
18611;DHT22;9435;52.122;5.502;2023-05-07T04:54:31;13.70;99.90
18611;DHT22;9435;52.122;5.502;2023-05-07T04:56:58;13.80;99.90
18611;DHT22;9435;52.122;5.502;2023-05-07T04:59:25;13.80;99.90
18611;DHT22;9435;52.122;5.502;2023-05-07T05:01:52;13.80;99.90
18611;DHT22;9435;52.122;5.502;2023-05-07T05:04:19;13.80;99.90
18611;DHT22;9435;52.122;5.502;2023-05-07T05:06:48;13.80;99.90
18611;DHT22;9435;52.122;5.502;2023-05-07T05:09:15;13.80;99.90
18611;DHT22;9435;52.122;5.502;2023-05-07T05:11:42;13.80;99.90
18611;DHT22;9435;52.122;5.502;2023-05-07T05:14:09;13.90;99.90
18611;DHT22;9435;52.122;5.502;2023-05-07T05:16:36;13.90;99.90
18611;DHT22;9435;52.122;5.502;2023-05-07T05:19:03;13.90;99.90
18611;DHT22;9435;52.122;5.502;2023-05-07T05:21:31;14.00;99.90
18611;DHT22;9435;52.122;5.502;2023-05-07T05:23:59;14.00;99.90
18611;DHT22;9435;52.122;5.502;2023-05-07T05:26:26;14.00;99.90
18611;DHT22;9435;52.122;5.502;2023-05-07T05:28:53;14.00;99.90
18611;DHT22;9435;52.122;5.502;2023-05-07T05:31:20;14.00;99.90
18611;DHT22;9435;52.122;5.502;2023-05-07T05:33:47;14.00;99.90
18611;DHT22;9435;52.122;5.502;2023-05-07T05:36:15;14.10;99.90
18611;DHT22;9435;52.122;5.502;2023-05-07T05:38:42;14.00;99.90
18611;DHT22;9435;52.122;5.502;2023-05-07T05:41:10;14.10;99.90
18611;DHT22;9435;52.122;5.502;2023-05-07T05:43:37;14.10;99.90
18611;DHT22;9435;52.122;5.502;2023-05-07T05:46:05;14.20;99.90
18611;DHT22;9435;52.122;5.502;2023-05-07T05:48:33;14.20;99.90
18611;DHT22;9435;52.122;5.502;2023-05-07T05:51:00;14.20;99.90
18611;DHT22;9435;52.122;5.502;2023-05-07T05:53:27;14.20;99.90
18611;DHT22;9435;52.122;5.502;2023-05-07T05:55:55;14.30;99.90
18611;DHT22;9435;52.122;5.502;2023-05-07T05:58:23;14.30;99.90
18611;DHT22;9435;52.122;5.502;2023-05-07T06:00:50;14.30;99.90
18611;DHT22;9435;52.122;5.502;2023-05-07T06:03:18;14.40;99.90
18611;DHT22;9435;52.122;5.502;2023-05-07T06:05:45;14.40;99.90
18611;DHT22;9435;52.122;5.502;2023-05-07T06:08:13;14.40;99.90
18611;DHT22;9435;52.122;5.502;2023-05-07T06:10:40;14.50;99.90
18611;DHT22;9435;52.122;5.502;2023-05-07T06:13:07;14.50;99.90
18611;DHT22;9435;52.122;5.502;2023-05-07T06:15:36;14.50;99.90
18611;DHT22;9435;52.122;5.502;2023-05-07T06:18:03;14.50;99.90
18611;DHT22;9435;52.122;5.502;2023-05-07T06:20:30;14.60;99.90
18611;DHT22;9435;52.122;5.502;2023-05-07T06:22:57;14.60;99.90
18611;DHT22;9435;52.122;5.502;2023-05-07T06:25:24;14.60;99.90
18611;DHT22;9435;52.122;5.502;2023-05-07T06:27:51;14.70;99.90
18611;DHT22;9435;52.122;5.502;2023-05-07T06:30:18;14.70;99.90
18611;DHT22;9435;52.122;5.502;2023-05-07T06:32:47;14.70;99.90
18611;DHT22;9435;52.122;5.502;2023-05-07T06:35:14;14.80;99.90
18611;DHT22;9435;52.122;5.502;2023-05-07T06:37:41;14.80;99.90
18611;DHT22;9435;52.122;5.502;2023-05-07T06:40:10;14.80;99.90
18611;DHT22;9435;52.122;5.502;2023-05-07T06:42:37;14.80;99.90
18611;DHT22;9435;52.122;5.502;2023-05-07T06:45:05;14.80;99.90
18611;DHT22;9435;52.122;5.502;2023-05-07T06:47:32;14.80;99.90
18611;DHT22;9435;52.122;5.502;2023-05-07T06:50:00;14.80;99.90
18611;DHT22;9435;52.122;5.502;2023-05-07T06:52:27;14.90;99.90
18611;DHT22;9435;52.122;5.502;2023-05-07T06:54:55;14.90;99.90
18611;DHT22;9435;52.122;5.502;2023-05-07T06:57:22;14.90;99.90
18611;DHT22;9435;52.122;5.502;2023-05-07T06:59:49;14.90;99.90
18611;DHT22;9435;52.122;5.502;2023-05-07T07:02:16;15.00;99.90
18611;DHT22;9435;52.122;5.502;2023-05-07T07:04:43;14.90;99.90
18611;DHT22;9435;52.122;5.502;2023-05-07T07:07:12;14.90;99.90
18611;DHT22;9435;52.122;5.502;2023-05-07T07:09:39;15.00;99.90
18611;DHT22;9435;52.122;5.502;2023-05-07T07:12:06;14.90;99.90
18611;DHT22;9435;52.122;5.502;2023-05-07T07:14:33;14.90;99.90
18611;DHT22;9435;52.122;5.502;2023-05-07T07:17:00;14.90;99.90
18611;DHT22;9435;52.122;5.502;2023-05-07T07:19:27;14.90;99.90
18611;DHT22;9435;52.122;5.502;2023-05-07T07:21:54;15.00;99.90
18611;DHT22;9435;52.122;5.502;2023-05-07T07:24:23;15.10;99.90
18611;DHT22;9435;52.122;5.502;2023-05-07T07:26:50;15.10;99.90
18611;DHT22;9435;52.122;5.502;2023-05-07T07:29:17;15.10;99.90
18611;DHT22;9435;52.122;5.502;2023-05-07T07:31:44;15.10;99.90
18611;DHT22;9435;52.122;5.502;2023-05-07T07:34:11;15.20;99.90
18611;DHT22;9435;52.122;5.502;2023-05-07T07:36:38;15.30;99.90
18611;DHT22;9435;52.122;5.502;2023-05-07T07:39:05;15.40;99.90
18611;DHT22;9435;52.122;5.502;2023-05-07T07:41:34;15.40;99.90
18611;DHT22;9435;52.122;5.502;2023-05-07T07:44:02;15.50;99.90
18611;DHT22;9435;52.122;5.502;2023-05-07T07:46:29;15.60;99.90
18611;DHT22;9435;52.122;5.502;2023-05-07T07:48:56;15.50;99.90
18611;DHT22;9435;52.122;5.502;2023-05-07T07:51:24;15.50;99.90
18611;DHT22;9435;52.122;5.502;2023-05-07T07:53:52;15.60;99.90
18611;DHT22;9435;52.122;5.502;2023-05-07T07:56:19;15.70;99.90
18611;DHT22;9435;52.122;5.502;2023-05-07T07:58:47;15.80;99.90
18611;DHT22;9435;52.122;5.502;2023-05-07T08:01:14;15.80;99.90
18611;DHT22;9435;52.122;5.502;2023-05-07T08:03:42;15.70;99.90
18611;DHT22;9435;52.122;5.502;2023-05-07T08:06:09;15.80;99.90
18611;DHT22;9435;52.122;5.502;2023-05-07T08:08:36;16.00;99.90
18611;DHT22;9435;52.122;5.502;2023-05-07T08:11:03;16.10;99.90
18611;DHT22;9435;52.122;5.502;2023-05-07T08:13:31;16.00;99.90
18611;DHT22;9435;52.122;5.502;2023-05-07T08:15:59;16.10;99.90
18611;DHT22;9435;52.122;5.502;2023-05-07T08:18:26;16.10;99.90
18611;DHT22;9435;52.122;5.502;2023-05-07T08:20:54;16.00;99.90
18611;DHT22;9435;52.122;5.502;2023-05-07T08:23:21;16.10;99.90
18611;DHT22;9435;52.122;5.502;2023-05-07T08:25:51;16.30;99.90
18611;DHT22;9435;52.122;5.502;2023-05-07T08:28:19;16.40;99.90
18611;DHT22;9435;52.122;5.502;2023-05-07T08:30:47;16.50;99.90
18611;DHT22;9435;52.122;5.502;2023-05-07T08:33:15;16.50;99.90
18611;DHT22;9435;52.122;5.502;2023-05-07T08:35:42;16.50;99.90
18611;DHT22;9435;52.122;5.502;2023-05-07T08:38:10;16.50;99.90
18611;DHT22;9435;52.122;5.502;2023-05-07T08:40:38;16.40;99.90
18611;DHT22;9435;52.122;5.502;2023-05-07T08:43:06;16.30;99.90
18611;DHT22;9435;52.122;5.502;2023-05-07T08:45:34;16.20;99.90
18611;DHT22;9435;52.122;5.502;2023-05-07T08:48:03;16.00;99.90
18611;DHT22;9435;52.122;5.502;2023-05-07T08:50:35;16.00;99.90
18611;DHT22;9435;52.122;5.502;2023-05-07T08:53:03;16.00;99.90
18611;DHT22;9435;52.122;5.502;2023-05-07T08:55:31;16.10;99.90
18611;DHT22;9435;52.122;5.502;2023-05-07T08:57:59;16.10;99.90
18611;DHT22;9435;52.122;5.502;2023-05-07T09:00:26;16.10;99.90
18611;DHT22;9435;52.122;5.502;2023-05-07T09:02:53;16.20;99.90
18611;DHT22;9435;52.122;5.502;2023-05-07T09:05:21;16.10;99.90
18611;DHT22;9435;52.122;5.502;2023-05-07T09:07:49;15.90;99.90
18611;DHT22;9435;52.122;5.502;2023-05-07T09:10:16;15.90;99.90
18611;DHT22;9435;52.122;5.502;2023-05-07T09:12:43;16.00;99.90
18611;DHT22;9435;52.122;5.502;2023-05-07T09:15:13;15.80;99.90
18611;DHT22;9435;52.122;5.502;2023-05-07T09:17:40;15.90;99.90
18611;DHT22;9435;52.122;5.502;2023-05-07T09:20:08;15.80;99.90
18611;DHT22;9435;52.122;5.502;2023-05-07T09:22:37;15.80;99.90
18611;DHT22;9435;52.122;5.502;2023-05-07T09:25:06;15.70;99.90
18611;DHT22;9435;52.122;5.502;2023-05-07T09:27:33;15.80;99.90
18611;DHT22;9435;52.122;5.502;2023-05-07T09:30:03;15.90;99.90
18611;DHT22;9435;52.122;5.502;2023-05-07T09:32:35;16.10;99.90
18611;DHT22;9435;52.122;5.502;2023-05-07T09:35:04;16.00;99.90
18611;DHT22;9435;52.122;5.502;2023-05-07T09:37:31;16.10;99.90
18611;DHT22;9435;52.122;5.502;2023-05-07T09:39:58;16.30;99.90
18611;DHT22;9435;52.122;5.502;2023-05-07T09:42:27;16.60;99.90
18611;DHT22;9435;52.122;5.502;2023-05-07T09:44:54;16.60;99.90
18611;DHT22;9435;52.122;5.502;2023-05-07T09:47:24;16.60;99.90
18611;DHT22;9435;52.122;5.502;2023-05-07T09:49:56;16.40;99.90
18611;DHT22;9435;52.122;5.502;2023-05-07T09:52:23;16.50;99.90
18611;DHT22;9435;52.122;5.502;2023-05-07T09:54:55;16.50;99.90
18611;DHT22;9435;52.122;5.502;2023-05-07T09:57:27;16.70;99.90
18611;DHT22;9435;52.122;5.502;2023-05-07T09:59:56;16.70;99.90
18611;DHT22;9435;52.122;5.502;2023-05-07T10:02:25;16.80;99.90
18611;DHT22;9435;52.122;5.502;2023-05-07T10:04:55;16.80;99.90
18611;DHT22;9435;52.122;5.502;2023-05-07T10:07:23;16.80;99.90
18611;DHT22;9435;52.122;5.502;2023-05-07T10:09:51;16.80;99.90
18611;DHT22;9435;52.122;5.502;2023-05-07T10:12:19;16.80;99.90
18611;DHT22;9435;52.122;5.502;2023-05-07T10:14:48;16.70;99.90
18611;DHT22;9435;52.122;5.502;2023-05-07T10:17:16;16.70;99.90
18611;DHT22;9435;52.122;5.502;2023-05-07T10:19:44;16.70;99.90
18611;DHT22;9435;52.122;5.502;2023-05-07T10:22:14;16.80;99.90
18611;DHT22;9435;52.122;5.502;2023-05-07T10:24:43;16.90;99.90
18611;DHT22;9435;52.122;5.502;2023-05-07T10:27:12;17.00;99.90
18611;DHT22;9435;52.122;5.502;2023-05-07T10:29:49;17.10;99.90
18611;DHT22;9435;52.122;5.502;2023-05-07T10:32:33;17.00;99.90
18611;DHT22;9435;52.122;5.502;2023-05-07T10:35:10;17.00;99.90
18611;DHT22;9435;52.122;5.502;2023-05-07T10:37:39;17.00;99.90
18611;DHT22;9435;52.122;5.502;2023-05-07T10:40:09;17.10;99.90
18611;DHT22;9435;52.122;5.502;2023-05-07T10:42:36;17.30;99.90
18611;DHT22;9435;52.122;5.502;2023-05-07T10:45:14;17.50;99.90
18611;DHT22;9435;52.122;5.502;2023-05-07T10:48:06;17.40;99.90
18611;DHT22;9435;52.122;5.502;2023-05-07T10:50:34;17.50;99.90
18611;DHT22;9435;52.122;5.502;2023-05-07T10:53:22;17.50;99.90
18611;DHT22;9435;52.122;5.502;2023-05-07T10:56:25;17.60;99.90
18611;DHT22;9435;52.122;5.502;2023-05-07T10:58:56;17.70;99.90
18611;DHT22;9435;52.122;5.502;2023-05-07T11:01:52;17.80;99.90
18611;DHT22;9435;52.122;5.502;2023-05-07T11:04:19;17.90;99.90
18611;DHT22;9435;52.122;5.502;2023-05-07T11:10:06;17.90;99.90
18611;DHT22;9435;52.122;5.502;2023-05-07T11:12:54;18.10;99.90
18611;DHT22;9435;52.122;5.502;2023-05-07T11:15:38;18.30;99.90
18611;DHT22;9435;52.122;5.502;2023-05-07T11:18:07;18.30;99.90
18611;DHT22;9435;52.122;5.502;2023-05-07T11:20:55;18.40;99.90
18611;DHT22;9435;52.122;5.502;2023-05-07T11:23:56;18.40;99.90
18611;DHT22;9435;52.122;5.502;2023-05-07T11:26:28;18.50;99.90
18611;DHT22;9435;52.122;5.502;2023-05-07T11:28:58;18.50;99.90
18611;DHT22;9435;52.122;5.502;2023-05-07T11:31:27;18.50;99.90
18611;DHT22;9435;52.122;5.502;2023-05-07T11:33:57;18.60;99.90
18611;DHT22;9435;52.122;5.502;2023-05-07T11:36:25;18.80;99.90
18611;DHT22;9435;52.122;5.502;2023-05-07T11:38:53;18.60;99.90
18611;DHT22;9435;52.122;5.502;2023-05-07T11:41:20;18.70;99.90
18611;DHT22;9435;52.122;5.502;2023-05-07T11:43:59;18.90;99.90
18611;DHT22;9435;52.122;5.502;2023-05-07T11:46:27;19.10;99.90
18611;DHT22;9435;52.122;5.502;2023-05-07T11:48:55;18.90;99.90
18611;DHT22;9435;52.122;5.502;2023-05-07T11:51:23;18.90;99.90
18611;DHT22;9435;52.122;5.502;2023-05-07T11:53:51;19.30;99.90
18611;DHT22;9435;52.122;5.502;2023-05-07T11:56:19;19.20;99.90
18611;DHT22;9435;52.122;5.502;2023-05-07T11:58:49;19.30;99.90
18611;DHT22;9435;52.122;5.502;2023-05-07T12:01:19;19.40;99.90
18611;DHT22;9435;52.122;5.502;2023-05-07T12:03:46;19.30;99.90
18611;DHT22;9435;52.122;5.502;2023-05-07T12:06:14;19.30;99.90
18611;DHT22;9435;52.122;5.502;2023-05-07T12:08:43;19.40;99.90
18611;DHT22;9435;52.122;5.502;2023-05-07T12:11:16;19.40;99.90
18611;DHT22;9435;52.122;5.502;2023-05-07T12:13:44;19.40;99.90
18611;DHT22;9435;52.122;5.502;2023-05-07T12:16:11;19.60;99.90
18611;DHT22;9435;52.122;5.502;2023-05-07T12:18:41;19.40;99.90
18611;DHT22;9435;52.122;5.502;2023-05-07T12:21:09;19.50;99.90
18611;DHT22;9435;52.122;5.502;2023-05-07T12:23:37;19.70;99.90
18611;DHT22;9435;52.122;5.502;2023-05-07T12:26:05;20.00;99.90
18611;DHT22;9435;52.122;5.502;2023-05-07T12:28:36;19.90;99.90
18611;DHT22;9435;52.122;5.502;2023-05-07T12:31:04;19.80;99.90
18611;DHT22;9435;52.122;5.502;2023-05-07T12:33:32;19.80;99.90
18611;DHT22;9435;52.122;5.502;2023-05-07T12:36:04;19.70;99.90
18611;DHT22;9435;52.122;5.502;2023-05-07T12:38:36;19.60;99.90
18611;DHT22;9435;52.122;5.502;2023-05-07T12:41:04;19.90;99.90
18611;DHT22;9435;52.122;5.502;2023-05-07T12:43:32;19.80;99.90
18611;DHT22;9435;52.122;5.502;2023-05-07T12:46:01;19.70;99.90
18611;DHT22;9435;52.122;5.502;2023-05-07T12:48:28;19.80;99.90
18611;DHT22;9435;52.122;5.502;2023-05-07T12:50:56;19.80;99.90
18611;DHT22;9435;52.122;5.502;2023-05-07T12:53:26;19.80;99.90
18611;DHT22;9435;52.122;5.502;2023-05-07T12:55:55;19.60;99.90
18611;DHT22;9435;52.122;5.502;2023-05-07T12:58:25;19.70;99.90
18611;DHT22;9435;52.122;5.502;2023-05-07T13:00:54;19.90;99.90
18611;DHT22;9435;52.122;5.502;2023-05-07T13:03:26;20.10;99.90
18611;DHT22;9435;52.122;5.502;2023-05-07T13:05:55;20.20;99.90
18611;DHT22;9435;52.122;5.502;2023-05-07T13:08:28;20.20;99.90
18611;DHT22;9435;52.122;5.502;2023-05-07T13:10:56;20.00;99.90
18611;DHT22;9435;52.122;5.502;2023-05-07T13:13:23;19.90;99.90
18611;DHT22;9435;52.122;5.502;2023-05-07T13:15:50;20.00;99.90
18611;DHT22;9435;52.122;5.502;2023-05-07T13:18:17;20.00;99.90
18611;DHT22;9435;52.122;5.502;2023-05-07T13:20:44;20.00;99.90
18611;DHT22;9435;52.122;5.502;2023-05-07T13:23:15;20.00;99.90
18611;DHT22;9435;52.122;5.502;2023-05-07T13:25:43;20.10;99.90
18611;DHT22;9435;52.122;5.502;2023-05-07T13:28:10;20.40;99.90
18611;DHT22;9435;52.122;5.502;2023-05-07T13:30:38;20.40;99.90
18611;DHT22;9435;52.122;5.502;2023-05-07T13:33:06;20.40;99.90
18611;DHT22;9435;52.122;5.502;2023-05-07T13:35:33;20.40;99.90
18611;DHT22;9435;52.122;5.502;2023-05-07T13:38:00;20.60;99.90
18611;DHT22;9435;52.122;5.502;2023-05-07T13:40:28;20.30;99.90
18611;DHT22;9435;52.122;5.502;2023-05-07T13:42:57;20.20;99.90
18611;DHT22;9435;52.122;5.502;2023-05-07T13:45:25;19.90;99.90
18611;DHT22;9435;52.122;5.502;2023-05-07T13:47:52;19.90;99.90
18611;DHT22;9435;52.122;5.502;2023-05-07T13:50:19;20.00;99.90
18611;DHT22;9435;52.122;5.502;2023-05-07T13:52:46;19.90;99.90
18611;DHT22;9435;52.122;5.502;2023-05-07T13:55:16;19.90;99.90
18611;DHT22;9435;52.122;5.502;2023-05-07T13:57:43;19.90;99.90
18611;DHT22;9435;52.122;5.502;2023-05-07T14:00:13;19.90;99.90
18611;DHT22;9435;52.122;5.502;2023-05-07T14:02:41;19.90;99.90
18611;DHT22;9435;52.122;5.502;2023-05-07T14:05:09;19.90;99.90
18611;DHT22;9435;52.122;5.502;2023-05-07T14:07:36;19.90;99.90
18611;DHT22;9435;52.122;5.502;2023-05-07T14:10:04;19.90;99.90
18611;DHT22;9435;52.122;5.502;2023-05-07T14:12:32;19.90;99.90
18611;DHT22;9435;52.122;5.502;2023-05-07T14:14:59;20.00;99.90
18611;DHT22;9435;52.122;5.502;2023-05-07T14:17:27;20.00;99.90
18611;DHT22;9435;52.122;5.502;2023-05-07T14:19:55;20.10;99.90
18611;DHT22;9435;52.122;5.502;2023-05-07T14:22:22;20.10;99.90
18611;DHT22;9435;52.122;5.502;2023-05-07T14:24:50;19.90;99.90
18611;DHT22;9435;52.122;5.502;2023-05-07T14:27:17;19.90;99.90
18611;DHT22;9435;52.122;5.502;2023-05-07T14:29:44;19.90;99.90
18611;DHT22;9435;52.122;5.502;2023-05-07T14:32:16;19.80;99.90
18611;DHT22;9435;52.122;5.502;2023-05-07T14:34:45;19.80;99.90
18611;DHT22;9435;52.122;5.502;2023-05-07T14:37:13;19.80;99.90
18611;DHT22;9435;52.122;5.502;2023-05-07T14:39:40;19.80;99.90
18611;DHT22;9435;52.122;5.502;2023-05-07T14:42:07;19.70;99.90
18611;DHT22;9435;52.122;5.502;2023-05-07T14:44:34;19.50;99.90
18611;DHT22;9435;52.122;5.502;2023-05-07T14:47:01;19.50;99.90
18611;DHT22;9435;52.122;5.502;2023-05-07T14:49:29;19.50;99.90
18611;DHT22;9435;52.122;5.502;2023-05-07T14:51:58;19.40;99.90
18611;DHT22;9435;52.122;5.502;2023-05-07T14:54:26;19.30;99.90
18611;DHT22;9435;52.122;5.502;2023-05-07T14:56:53;19.30;99.90
18611;DHT22;9435;52.122;5.502;2023-05-07T14:59:21;19.20;99.90
18611;DHT22;9435;52.122;5.502;2023-05-07T15:01:50;19.00;99.90
18611;DHT22;9435;52.122;5.502;2023-05-07T15:04:17;18.90;99.90
18611;DHT22;9435;52.122;5.502;2023-05-07T15:06:45;18.90;99.90
18611;DHT22;9435;52.122;5.502;2023-05-07T15:09:13;18.70;99.90
18611;DHT22;9435;52.122;5.502;2023-05-07T15:11:40;18.50;99.90
18611;DHT22;9435;52.122;5.502;2023-05-07T15:14:07;18.30;99.90
18611;DHT22;9435;52.122;5.502;2023-05-07T15:16:35;18.30;99.90
18611;DHT22;9435;52.122;5.502;2023-05-07T15:19:02;18.20;99.90
18611;DHT22;9435;52.122;5.502;2023-05-07T15:21:29;18.30;99.90
18611;DHT22;9435;52.122;5.502;2023-05-07T15:23:58;18.10;99.90
18611;DHT22;9435;52.122;5.502;2023-05-07T15:26:27;18.10;99.90
18611;DHT22;9435;52.122;5.502;2023-05-07T15:28:54;18.10;99.90
18611;DHT22;9435;52.122;5.502;2023-05-07T15:31:22;18.10;99.90
18611;DHT22;9435;52.122;5.502;2023-05-07T15:33:50;18.00;99.90
18611;DHT22;9435;52.122;5.502;2023-05-07T15:36:19;18.10;99.90
18611;DHT22;9435;52.122;5.502;2023-05-07T15:38:46;18.00;99.90
18611;DHT22;9435;52.122;5.502;2023-05-07T15:41:13;18.10;99.90
18611;DHT22;9435;52.122;5.502;2023-05-07T15:43:46;18.00;99.90
18611;DHT22;9435;52.122;5.502;2023-05-07T15:46:17;18.00;99.90
18611;DHT22;9435;52.122;5.502;2023-05-07T15:48:45;18.00;99.90
18611;DHT22;9435;52.122;5.502;2023-05-07T15:51:12;18.10;99.90
18611;DHT22;9435;52.122;5.502;2023-05-07T15:53:39;18.10;99.90
18611;DHT22;9435;52.122;5.502;2023-05-07T15:56:07;18.10;99.90